Terminal Aerodrome Forecast
Issued by NWS

Home | Current Version | Previous Version | Text Only | Print | Product List | Glossary On
Versions: 1 2 3 4 5 6 7 8 9 10 11 12 13 14 15 16 17 18
000
FTUS45 KMSO 240524
TAFSMN
TAF
KSMN 240524Z 2406/2506 23008KT P6SM VCSH BKN070
     FM241200 VRB06KT P6SM -SHRA BKN050
     FM241500 VRB06KT P6SM VCSH BKN070
     FM242000 VRB04KT P6SM FEW100
      AMD LTD TO CLD VIS AND WIND=

USA.gov is the U.S. government's official web portal to all federal, state and local government web resources and services.